sensor_id;sensor_type;location;lat;lon;timestamp;P1;durP1;ratioP1;P2;durP2;ratioP2
1959;SDS011;980;43.794;11.212;2022-09-11T00:01:11;1.00;;;0.00;;
1959;SDS011;980;43.794;11.212;2022-09-11T00:03:38;1.00;;;1.00;;
1959;SDS011;980;43.794;11.212;2022-09-11T00:06:08;0.00;;;0.00;;
1959;SDS011;980;43.794;11.212;2022-09-11T00:08:35;0.33;;;0.33;;
1959;SDS011;980;43.794;11.212;2022-09-11T00:11:02;1.00;;;0.33;;
1959;SDS011;980;43.794;11.212;2022-09-11T00:13:28;1.25;;;0.75;;
1959;SDS011;980;43.794;11.212;2022-09-11T00:15:53;2.00;;;0.33;;
1959;SDS011;980;43.794;11.212;2022-09-11T00:18:20;1.00;;;0.33;;
1959;SDS011;980;43.794;11.212;2022-09-11T00:20:52;1.25;;;0.75;;
1959;SDS011;980;43.794;11.212;2022-09-11T00:23:18;1.00;;;1.00;;
1959;SDS011;980;43.794;11.212;2022-09-11T00:25:44;1.00;;;0.00;;
1959;SDS011;980;43.794;11.212;2022-09-11T00:28:10;1.00;;;0.00;;
1959;SDS011;980;43.794;11.212;2022-09-11T00:30:37;1.00;;;0.50;;
1959;SDS011;980;43.794;11.212;2022-09-11T00:33:02;0.33;;;0.33;;
1959;SDS011;980;43.794;11.212;2022-09-11T00:35:29;1.00;;;0.00;;
1959;SDS011;980;43.794;11.212;2022-09-11T00:37:54;1.67;;;0.00;;
1959;SDS011;980;43.794;11.212;2022-09-11T00:40:19;0.00;;;0.00;;
1959;SDS011;980;43.794;11.212;2022-09-11T00:42:50;1.00;;;1.00;;
1959;SDS011;980;43.794;11.212;2022-09-11T00:45:18;1.00;;;0.25;;
1959;SDS011;980;43.794;11.212;2022-09-11T00:47:44;0.00;;;0.00;;
1959;SDS011;980;43.794;11.212;2022-09-11T00:50:13;0.00;;;0.00;;
1959;SDS011;980;43.794;11.212;2022-09-11T00:52:45;2.00;;;0.25;;
1959;SDS011;980;43.794;11.212;2022-09-11T00:55:14;0.75;;;0.00;;
1959;SDS011;980;43.794;11.212;2022-09-11T00:57:41;0.00;;;0.00;;
1959;SDS011;980;43.794;11.212;2022-09-11T01:00:08;1.50;;;0.00;;
1959;SDS011;980;43.794;11.212;2022-09-11T01:02:34;0.00;;;0.00;;
1959;SDS011;980;43.794;11.212;2022-09-11T01:05:00;0.00;;;0.00;;
1959;SDS011;980;43.794;11.212;2022-09-11T01:07:27;0.25;;;0.25;;
1959;SDS011;980;43.794;11.212;2022-09-11T01:09:53;1.00;;;0.25;;
1959;SDS011;980;43.794;11.212;2022-09-11T01:20:31;1.67;;;0.33;;
1959;SDS011;980;43.794;11.212;2022-09-11T01:35:03;1.50;;;0.00;;
1959;SDS011;980;43.794;11.212;2022-09-11T01:40:23;0.00;;;0.00;;
1959;SDS011;980;43.794;11.212;2022-09-11T01:42:50;2.00;;;1.00;;
1959;SDS011;980;43.794;11.212;2022-09-11T01:45:17;0.00;;;0.00;;
1959;SDS011;980;43.794;11.212;2022-09-11T01:47:43;2.00;;;1.00;;
1959;SDS011;980;43.794;11.212;2022-09-11T01:50:11;2.00;;;0.00;;
1959;SDS011;980;43.794;11.212;2022-09-11T01:52:42;1.00;;;1.00;;
1959;SDS011;980;43.794;11.212;2022-09-11T01:55:13;1.00;;;0.00;;
1959;SDS011;980;43.794;11.212;2022-09-11T02:00:07;1.00;;;0.67;;
1959;SDS011;980;43.794;11.212;2022-09-11T02:02:36;1.67;;;0.33;;
1959;SDS011;980;43.794;11.212;2022-09-11T02:05:11;1.33;;;0.00;;
1959;SDS011;980;43.794;11.212;2022-09-11T02:07:44;1.67;;;1.00;;
1959;SDS011;980;43.794;11.212;2022-09-11T02:10:14;2.00;;;0.00;;
1959;SDS011;980;43.794;11.212;2022-09-11T02:12:52;1.00;;;0.00;;
1959;SDS011;980;43.794;11.212;2022-09-11T02:15:19;0.67;;;0.00;;
1959;SDS011;980;43.794;11.212;2022-09-11T02:20:17;0.33;;;0.33;;
1959;SDS011;980;43.794;11.212;2022-09-11T02:22:44;0.00;;;0.00;;
1959;SDS011;980;43.794;11.212;2022-09-11T02:25:09;0.00;;;0.00;;
1959;SDS011;980;43.794;11.212;2022-09-11T02:27:35;0.67;;;0.67;;
1959;SDS011;980;43.794;11.212;2022-09-11T02:30:01;1.00;;;1.00;;
1959;SDS011;980;43.794;11.212;2022-09-11T02:32:26;2.00;;;0.00;;
1959;SDS011;980;43.794;11.212;2022-09-11T02:34:53;1.00;;;0.00;;
1959;SDS011;980;43.794;11.212;2022-09-11T02:40:08;0.00;;;0.00;;
1959;SDS011;980;43.794;11.212;2022-09-11T02:50:52;1.00;;;1.00;;
1959;SDS011;980;43.794;11.212;2022-09-11T02:58:48;1.33;;;1.33;;
1959;SDS011;980;43.794;11.212;2022-09-11T03:01:14;1.00;;;1.00;;
1959;SDS011;980;43.794;11.212;2022-09-11T03:03:41;0.33;;;0.33;;
1959;SDS011;980;43.794;11.212;2022-09-11T03:06:08;2.00;;;1.00;;
1959;SDS011;980;43.794;11.212;2022-09-11T03:08:34;1.00;;;1.00;;
1959;SDS011;980;43.794;11.212;2022-09-11T03:10:59;1.00;;;0.00;;
1959;SDS011;980;43.794;11.212;2022-09-11T03:13:25;3.00;;;2.00;;
1959;SDS011;980;43.794;11.212;2022-09-11T03:15:50;2.33;;;1.00;;
1959;SDS011;980;43.794;11.212;2022-09-11T03:18:15;1.33;;;1.33;;
1959;SDS011;980;43.794;11.212;2022-09-11T03:20:44;2.00;;;1.00;;
1959;SDS011;980;43.794;11.212;2022-09-11T03:23:11;1.75;;;1.00;;
1959;SDS011;980;43.794;11.212;2022-09-11T03:25:36;3.00;;;1.00;;
1959;SDS011;980;43.794;11.212;2022-09-11T03:28:02;1.25;;;1.25;;
1959;SDS011;980;43.794;11.212;2022-09-11T03:30:28;1.75;;;1.00;;
1959;SDS011;980;43.794;11.212;2022-09-11T03:32:53;3.00;;;1.75;;
1959;SDS011;980;43.794;11.212;2022-09-11T03:35:19;1.00;;;1.00;;
1959;SDS011;980;43.794;11.212;2022-09-11T03:37:45;1.00;;;0.25;;
1959;SDS011;980;43.794;11.212;2022-09-11T03:40:11;1.00;;;1.00;;
1959;SDS011;980;43.794;11.212;2022-09-11T03:42:36;1.25;;;1.00;;
1959;SDS011;980;43.794;11.212;2022-09-11T03:45:02;2.00;;;1.00;;
1959;SDS011;980;43.794;11.212;2022-09-11T03:47:28;2.00;;;1.00;;
1959;SDS011;980;43.794;11.212;2022-09-11T03:49:53;0.75;;;0.75;;
1959;SDS011;980;43.794;11.212;2022-09-11T03:52:19;0.25;;;0.25;;
1959;SDS011;980;43.794;11.212;2022-09-11T03:54:45;2.00;;;1.00;;
1959;SDS011;980;43.794;11.212;2022-09-11T03:57:11;0.00;;;0.00;;
1959;SDS011;980;43.794;11.212;2022-09-11T03:59:37;2.00;;;0.00;;
1959;SDS011;980;43.794;11.212;2022-09-11T04:02:03;1.75;;;1.00;;
1959;SDS011;980;43.794;11.212;2022-09-11T04:04:28;1.00;;;0.00;;
1959;SDS011;980;43.794;11.212;2022-09-11T04:06:53;1.00;;;0.75;;
1959;SDS011;980;43.794;11.212;2022-09-11T04:09:19;1.25;;;1.00;;
1959;SDS011;980;43.794;11.212;2022-09-11T04:11:44;1.00;;;0.00;;
1959;SDS011;980;43.794;11.212;2022-09-11T04:14:10;0.50;;;0.50;;
1959;SDS011;980;43.794;11.212;2022-09-11T04:16:35;0.67;;;0.00;;
1959;SDS011;980;43.794;11.212;2022-09-11T04:19:01;2.25;;;1.25;;
1959;SDS011;980;43.794;11.212;2022-09-11T04:21:26;1.00;;;0.50;;
1959;SDS011;980;43.794;11.212;2022-09-11T04:23:52;1.50;;;1.00;;
1959;SDS011;980;43.794;11.212;2022-09-11T04:26:20;1.25;;;0.00;;
1959;SDS011;980;43.794;11.212;2022-09-11T04:28:47;1.00;;;1.00;;
1959;SDS011;980;43.794;11.212;2022-09-11T04:31:12;1.50;;;1.50;;
1959;SDS011;980;43.794;11.212;2022-09-11T04:33:38;1.75;;;1.00;;
1959;SDS011;980;43.794;11.212;2022-09-11T04:36:24;2.25;;;1.00;;
1959;SDS011;980;43.794;11.212;2022-09-11T04:38:53;2.25;;;2.25;;
1959;SDS011;980;43.794;11.212;2022-09-11T04:41:18;1.75;;;1.75;;
1959;SDS011;980;43.794;11.212;2022-09-11T04:43:44;3.75;;;3.75;;
1959;SDS011;980;43.794;11.212;2022-09-11T04:46:10;3.50;;;2.00;;
1959;SDS011;980;43.794;11.212;2022-09-11T04:48:36;1.75;;;1.00;;
1959;SDS011;980;43.794;11.212;2022-09-11T04:51:07;1.25;;;1.25;;
1959;SDS011;980;43.794;11.212;2022-09-11T04:53:33;1.50;;;1.00;;
1959;SDS011;980;43.794;11.212;2022-09-11T04:56:02;2.00;;;2.00;;
1959;SDS011;980;43.794;11.212;2022-09-11T04:58:28;2.00;;;1.00;;
1959;SDS011;980;43.794;11.212;2022-09-11T05:00:54;3.00;;;2.50;;
1959;SDS011;980;43.794;11.212;2022-09-11T05:03:19;3.00;;;3.00;;
1959;SDS011;980;43.794;11.212;2022-09-11T05:05:45;1.50;;;0.50;;
1959;SDS011;980;43.794;11.212;2022-09-11T05:08:10;3.00;;;1.75;;
1959;SDS011;980;43.794;11.212;2022-09-11T05:10:36;3.00;;;2.00;;
1959;SDS011;980;43.794;11.212;2022-09-11T05:13:02;5.50;;;2.00;;
1959;SDS011;980;43.794;11.212;2022-09-11T05:15:28;4.00;;;2.25;;
1959;SDS011;980;43.794;11.212;2022-09-11T05:17:54;2.50;;;1.25;;
1959;SDS011;980;43.794;11.212;2022-09-11T05:20:19;3.00;;;1.50;;
1959;SDS011;980;43.794;11.212;2022-09-11T05:22:44;2.67;;;2.00;;
1959;SDS011;980;43.794;11.212;2022-09-11T05:25:09;5.50;;;3.00;;
1959;SDS011;980;43.794;11.212;2022-09-11T05:27:35;3.50;;;3.50;;
1959;SDS011;980;43.794;11.212;2022-09-11T05:30:00;2.00;;;1.50;;
1959;SDS011;980;43.794;11.212;2022-09-11T05:32:26;4.50;;;4.50;;
1959;SDS011;980;43.794;11.212;2022-09-11T05:34:51;3.75;;;1.75;;
1959;SDS011;980;43.794;11.212;2022-09-11T05:37:16;1.50;;;1.50;;
1959;SDS011;980;43.794;11.212;2022-09-11T05:39:41;2.00;;;2.00;;
1959;SDS011;980;43.794;11.212;2022-09-11T05:42:07;1.75;;;1.00;;
1959;SDS011;980;43.794;11.212;2022-09-11T05:44:32;2.00;;;1.67;;
1959;SDS011;980;43.794;11.212;2022-09-11T05:46:57;3.00;;;1.67;;
1959;SDS011;980;43.794;11.212;2022-09-11T05:49:22;2.75;;;2.75;;
1959;SDS011;980;43.794;11.212;2022-09-11T05:51:48;1.00;;;1.00;;
1959;SDS011;980;43.794;11.212;2022-09-11T05:54:13;1.00;;;1.00;;
1959;SDS011;980;43.794;11.212;2022-09-11T05:56:39;1.75;;;1.75;;
1959;SDS011;980;43.794;11.212;2022-09-11T05:59:08;2.50;;;2.00;;
1959;SDS011;980;43.794;11.212;2022-09-11T06:01:35;2.00;;;2.00;;
1959;SDS011;980;43.794;11.212;2022-09-11T06:04:00;5.00;;;2.00;;
1959;SDS011;980;43.794;11.212;2022-09-11T06:06:26;2.75;;;2.00;;
1959;SDS011;980;43.794;11.212;2022-09-11T06:08:51;3.00;;;2.00;;
1959;SDS011;980;43.794;11.212;2022-09-11T06:11:18;1.25;;;1.25;;
1959;SDS011;980;43.794;11.212;2022-09-11T06:13:44;1.67;;;1.00;;
1959;SDS011;980;43.794;11.212;2022-09-11T06:16:11;1.00;;;1.00;;
1959;SDS011;980;43.794;11.212;2022-09-11T06:18:36;2.00;;;2.00;;
1959;SDS011;980;43.794;11.212;2022-09-11T06:21:03;5.75;;;2.75;;
1959;SDS011;980;43.794;11.212;2022-09-11T06:23:31;2.00;;;2.00;;
1959;SDS011;980;43.794;11.212;2022-09-11T06:26:03;2.25;;;2.25;;
1959;SDS011;980;43.794;11.212;2022-09-11T06:28:28;3.00;;;2.00;;
1959;SDS011;980;43.794;11.212;2022-09-11T06:30:53;2.25;;;2.25;;
1959;SDS011;980;43.794;11.212;2022-09-11T06:33:19;3.00;;;2.25;;
1959;SDS011;980;43.794;11.212;2022-09-11T06:35:57;4.50;;;3.00;;
1959;SDS011;980;43.794;11.212;2022-09-11T06:38:23;3.00;;;3.00;;
1959;SDS011;980;43.794;11.212;2022-09-11T06:40:48;5.50;;;2.75;;
1959;SDS011;980;43.794;11.212;2022-09-11T06:43:14;5.00;;;4.00;;
1959;SDS011;980;43.794;11.212;2022-09-11T06:45:39;4.00;;;2.00;;
1959;SDS011;980;43.794;11.212;2022-09-11T06:48:05;4.00;;;3.25;;
1959;SDS011;980;43.794;11.212;2022-09-11T06:50:31;3.00;;;2.00;;
1959;SDS011;980;43.794;11.212;2022-09-11T06:53:05;2.50;;;2.00;;
1959;SDS011;980;43.794;11.212;2022-09-11T06:55:31;2.75;;;2.75;;
1959;SDS011;980;43.794;11.212;2022-09-11T06:57:56;2.00;;;2.00;;
1959;SDS011;980;43.794;11.212;2022-09-11T07:00:22;3.00;;;2.00;;
1959;SDS011;980;43.794;11.212;2022-09-11T07:02:47;3.00;;;3.00;;
1959;SDS011;980;43.794;11.212;2022-09-11T07:05:12;7.75;;;5.00;;
1959;SDS011;980;43.794;11.212;2022-09-11T07:07:37;1.50;;;1.50;;
1959;SDS011;980;43.794;11.212;2022-09-11T07:10:03;4.50;;;3.50;;
1959;SDS011;980;43.794;11.212;2022-09-11T07:12:29;5.00;;;4.00;;
1959;SDS011;980;43.794;11.212;2022-09-11T07:14:55;8.25;;;5.00;;
1959;SDS011;980;43.794;11.212;2022-09-11T07:17:20;5.25;;;4.00;;
1959;SDS011;980;43.794;11.212;2022-09-11T07:19:45;4.75;;;4.75;;
1959;SDS011;980;43.794;11.212;2022-09-11T07:22:10;5.50;;;2.25;;
1959;SDS011;980;43.794;11.212;2022-09-11T07:24:38;5.00;;;5.00;;
1959;SDS011;980;43.794;11.212;2022-09-11T07:27:03;2.00;;;2.00;;
1959;SDS011;980;43.794;11.212;2022-09-11T07:29:29;3.00;;;3.00;;
1959;SDS011;980;43.794;11.212;2022-09-11T07:31:55;10.50;;;7.50;;
1959;SDS011;980;43.794;11.212;2022-09-11T07:34:22;4.33;;;4.00;;
1959;SDS011;980;43.794;11.212;2022-09-11T07:36:47;4.25;;;3.00;;
1959;SDS011;980;43.794;11.212;2022-09-11T07:39:15;3.00;;;3.00;;
1959;SDS011;980;43.794;11.212;2022-09-11T07:41:41;6.75;;;6.75;;
1959;SDS011;980;43.794;11.212;2022-09-11T07:44:06;1.67;;;1.67;;
1959;SDS011;980;43.794;11.212;2022-09-11T07:46:31;2.67;;;2.00;;
1959;SDS011;980;43.794;11.212;2022-09-11T07:48:57;12.00;;;10.25;;
1959;SDS011;980;43.794;11.212;2022-09-11T07:51:22;23.50;;;23.00;;
1959;SDS011;980;43.794;11.212;2022-09-11T07:53:49;8.00;;;6.00;;
1959;SDS011;980;43.794;11.212;2022-09-11T07:56:15;8.33;;;7.33;;
1959;SDS011;980;43.794;11.212;2022-09-11T07:58:42;6.67;;;6.33;;
1959;SDS011;980;43.794;11.212;2022-09-11T08:01:09;5.00;;;5.00;;
1959;SDS011;980;43.794;11.212;2022-09-11T08:03:35;0.00;;;0.00;;
1959;SDS011;980;43.794;11.212;2022-09-11T08:06:01;4.33;;;4.33;;
1959;SDS011;980;43.794;11.212;2022-09-11T08:08:27;4.33;;;3.00;;
1959;SDS011;980;43.794;11.212;2022-09-11T08:11:15;3.33;;;2.00;;
1959;SDS011;980;43.794;11.212;2022-09-11T08:13:38;4.75;;;3.00;;
1959;SDS011;980;43.794;11.212;2022-09-11T08:16:04;2.33;;;2.00;;
1959;SDS011;980;43.794;11.212;2022-09-11T08:18:30;6.00;;;3.33;;
1959;SDS011;980;43.794;11.212;2022-09-11T08:21:05;5.00;;;4.00;;
1959;SDS011;980;43.794;11.212;2022-09-11T08:23:32;3.25;;;3.25;;
1959;SDS011;980;43.794;11.212;2022-09-11T08:26:04;8.67;;;7.00;;
1959;SDS011;980;43.794;11.212;2022-09-11T08:28:30;3.75;;;2.75;;
1959;SDS011;980;43.794;11.212;2022-09-11T08:30:58;4.67;;;4.00;;
1959;SDS011;980;43.794;11.212;2022-09-11T08:33:23;7.75;;;7.75;;
1959;SDS011;980;43.794;11.212;2022-09-11T08:35:48;6.00;;;4.33;;
1959;SDS011;980;43.794;11.212;2022-09-11T08:38:14;3.00;;;3.00;;
1959;SDS011;980;43.794;11.212;2022-09-11T08:40:39;2.33;;;2.33;;
1959;SDS011;980;43.794;11.212;2022-09-11T08:43:05;6.00;;;5.33;;
1959;SDS011;980;43.794;11.212;2022-09-11T08:45:33;4.50;;;2.00;;
1959;SDS011;980;43.794;11.212;2022-09-11T08:48:00;4.25;;;1.50;;
1959;SDS011;980;43.794;11.212;2022-09-11T08:52:56;3.75;;;2.00;;
1959;SDS011;980;43.794;11.212;2022-09-11T08:55:24;3.00;;;3.00;;
1959;SDS011;980;43.794;11.212;2022-09-11T08:58:36;15.25;;;11.50;;
1959;SDS011;980;43.794;11.212;2022-09-11T09:00:43;8.75;;;8.75;;
1959;SDS011;980;43.794;11.212;2022-09-11T09:05:44;4.75;;;4.75;;
1959;SDS011;980;43.794;11.212;2022-09-11T09:10:52;2.20;;;2.00;;
1959;SDS011;980;43.794;11.212;2022-09-11T09:21:05;2.60;;;0.00;;
1959;SDS011;980;43.794;11.212;2022-09-11T09:23:36;1.00;;;1.00;;
1959;SDS011;980;43.794;11.212;2022-09-11T09:26:06;1.60;;;0.00;;
1959;SDS011;980;43.794;11.212;2022-09-11T09:28:53;0.00;;;0.00;;
1959;SDS011;980;43.794;11.212;2022-09-11T09:31:21;0.00;;;0.00;;
1959;SDS011;980;43.794;11.212;2022-09-11T09:33:54;0.00;;;0.00;;
1959;SDS011;980;43.794;11.212;2022-09-11T09:36:26;2.20;;;0.00;;
1959;SDS011;980;43.794;11.212;2022-09-11T09:38:54;3.00;;;0.00;;
1959;SDS011;980;43.794;11.212;2022-09-11T09:48:51;0.75;;;0.00;;
1959;SDS011;980;43.794;11.212;2022-09-11T09:51:16;3.33;;;2.00;;
1959;SDS011;980;43.794;11.212;2022-09-11T09:53:47;0.00;;;0.00;;
1959;SDS011;980;43.794;11.212;2022-09-11T09:56:14;0.00;;;0.00;;
1959;SDS011;980;43.794;11.212;2022-09-11T09:58:42;3.00;;;1.00;;
1959;SDS011;980;43.794;11.212;2022-09-11T10:04:11;2.75;;;2.25;;
1959;SDS011;980;43.794;11.212;2022-09-11T10:06:37;1.25;;;0.00;;
1959;SDS011;980;43.794;11.212;2022-09-11T10:09:03;0.00;;;0.00;;
1959;SDS011;980;43.794;11.212;2022-09-11T10:11:28;0.67;;;0.00;;
1959;SDS011;980;43.794;11.212;2022-09-11T10:13:54;0.00;;;0.00;;
1959;SDS011;980;43.794;11.212;2022-09-11T10:18:45;0.00;;;0.00;;
1959;SDS011;980;43.794;11.212;2022-09-11T10:26:38;0.25;;;0.25;;
1959;SDS011;980;43.794;11.212;2022-09-11T10:31:31;0.50;;;0.25;;
1959;SDS011;980;43.794;11.212;2022-09-11T10:33:58;0.00;;;0.00;;
1959;SDS011;980;43.794;11.212;2022-09-11T10:36:25;0.25;;;0.25;;
1959;SDS011;980;43.794;11.212;2022-09-11T10:38:51;0.00;;;0.00;;
1959;SDS011;980;43.794;11.212;2022-09-11T10:41:20;1.00;;;1.00;;
1959;SDS011;980;43.794;11.212;2022-09-11T10:43:52;3.75;;;2.75;;
1959;SDS011;980;43.794;11.212;2022-09-11T10:46:28;0.00;;;0.00;;
1959;SDS011;980;43.794;11.212;2022-09-11T10:48:58;0.25;;;0.25;;
1959;SDS011;980;43.794;11.212;2022-09-11T10:51:24;1.00;;;1.00;;
1959;SDS011;980;43.794;11.212;2022-09-11T10:54:05;1.00;;;1.00;;
1959;SDS011;980;43.794;11.212;2022-09-11T10:56:33;0.00;;;0.00;;
1959;SDS011;980;43.794;11.212;2022-09-11T10:59:03;1.25;;;0.75;;
1959;SDS011;980;43.794;11.212;2022-09-11T11:01:31;0.00;;;0.00;;
1959;SDS011;980;43.794;11.212;2022-09-11T11:03:57;2.00;;;1.00;;
1959;SDS011;980;43.794;11.212;2022-09-11T11:21:36;0.00;;;0.00;;
1959;SDS011;980;43.794;11.212;2022-09-11T11:26:48;0.00;;;0.00;;
1959;SDS011;980;43.794;11.212;2022-09-11T11:29:26;1.75;;;0.50;;
1959;SDS011;980;43.794;11.212;2022-09-11T11:34:32;3.25;;;1.00;;
1959;SDS011;980;43.794;11.212;2022-09-11T11:39:42;0.00;;;0.00;;
1959;SDS011;980;43.794;11.212;2022-09-11T11:44:44;0.00;;;0.00;;
1959;SDS011;980;43.794;11.212;2022-09-11T11:47:12;0.75;;;0.00;;
1959;SDS011;980;43.794;11.212;2022-09-11T11:54:45;1.00;;;0.00;;
1959;SDS011;980;43.794;11.212;2022-09-11T11:57:15;0.00;;;0.00;;
1959;SDS011;980;43.794;11.212;2022-09-11T12:02:21;1.25;;;0.00;;
1959;SDS011;980;43.794;11.212;2022-09-11T12:09:44;0.00;;;0.00;;
1959;SDS011;980;43.794;11.212;2022-09-11T12:12:10;2.00;;;2.00;;
1959;SDS011;980;43.794;11.212;2022-09-11T18:29:52;5.00;;;3.00;;
1959;SDS011;980;43.794;11.212;2022-09-11T18:32:19;4.75;;;4.00;;
1959;SDS011;980;43.794;11.212;2022-09-11T18:34:44;5.33;;;4.00;;
1959;SDS011;980;43.794;11.212;2022-09-11T18:37:12;4.25;;;4.25;;
1959;SDS011;980;43.794;11.212;2022-09-11T18:39:37;10.67;;;10.33;;
1959;SDS011;980;43.794;11.212;2022-09-11T18:42:02;4.00;;;2.67;;
1959;SDS011;980;43.794;11.212;2022-09-11T18:44:31;3.00;;;3.00;;
1959;SDS011;980;43.794;11.212;2022-09-11T18:46:56;4.67;;;2.67;;
1959;SDS011;980;43.794;11.212;2022-09-11T18:49:21;11.33;;;9.33;;
1959;SDS011;980;43.794;11.212;2022-09-11T18:51:47;23.00;;;19.00;;
1959;SDS011;980;43.794;11.212;2022-09-11T18:54:16;22.33;;;20.00;;
1959;SDS011;980;43.794;11.212;2022-09-11T18:56:42;25.33;;;21.67;;
1959;SDS011;980;43.794;11.212;2022-09-11T18:59:08;27.33;;;22.33;;
1959;SDS011;980;43.794;11.212;2022-09-11T19:01:33;21.00;;;20.00;;
1959;SDS011;980;43.794;11.212;2022-09-11T19:03:59;14.67;;;13.33;;
1959;SDS011;980;43.794;11.212;2022-09-11T19:06:25;10.00;;;7.33;;
1959;SDS011;980;43.794;11.212;2022-09-11T19:08:52;8.75;;;7.75;;
1959;SDS011;980;43.794;11.212;2022-09-11T19:11:21;8.25;;;6.00;;
1959;SDS011;980;43.794;11.212;2022-09-11T19:13:47;10.50;;;7.75;;
1959;SDS011;980;43.794;11.212;2022-09-11T19:16:13;5.75;;;5.75;;
1959;SDS011;980;43.794;11.212;2022-09-11T19:18:40;4.75;;;4.75;;
1959;SDS011;980;43.794;11.212;2022-09-11T19:21:07;5.00;;;3.00;;
1959;SDS011;980;43.794;11.212;2022-09-11T19:23:43;3.25;;;3.00;;
1959;SDS011;980;43.794;11.212;2022-09-11T19:28:38;4.50;;;4.50;;
1959;SDS011;980;43.794;11.212;2022-09-11T19:31:05;7.50;;;5.00;;
1959;SDS011;980;43.794;11.212;2022-09-11T19:33:32;16.75;;;12.50;;
1959;SDS011;980;43.794;11.212;2022-09-11T19:36:02;16.00;;;15.00;;
1959;SDS011;980;43.794;11.212;2022-09-11T19:38:29;6.50;;;6.50;;
1959;SDS011;980;43.794;11.212;2022-09-11T19:40:54;13.00;;;10.75;;
1959;SDS011;980;43.794;11.212;2022-09-11T19:43:19;6.00;;;5.00;;
1959;SDS011;980;43.794;11.212;2022-09-11T19:45:48;6.25;;;6.25;;
1959;SDS011;980;43.794;11.212;2022-09-11T19:48:13;1.67;;;1.33;;
1959;SDS011;980;43.794;11.212;2022-09-11T19:50:45;4.00;;;2.75;;
1959;SDS011;980;43.794;11.212;2022-09-11T19:53:11;4.75;;;4.00;;
1959;SDS011;980;43.794;11.212;2022-09-11T19:55:36;10.67;;;7.00;;
1959;SDS011;980;43.794;11.212;2022-09-11T19:58:01;9.00;;;8.00;;
1959;SDS011;980;43.794;11.212;2022-09-11T20:00:27;8.67;;;8.33;;
1959;SDS011;980;43.794;11.212;2022-09-11T20:02:53;7.00;;;5.00;;
1959;SDS011;980;43.794;11.212;2022-09-11T20:05:18;6.33;;;5.00;;
1959;SDS011;980;43.794;11.212;2022-09-11T20:07:44;10.00;;;6.00;;
1959;SDS011;980;43.794;11.212;2022-09-11T20:10:09;7.00;;;4.00;;
1959;SDS011;980;43.794;11.212;2022-09-11T20:12:34;15.33;;;14.00;;
1959;SDS011;980;43.794;11.212;2022-09-11T20:15:04;4.00;;;4.00;;
1959;SDS011;980;43.794;11.212;2022-09-11T20:17:30;10.75;;;10.50;;
1959;SDS011;980;43.794;11.212;2022-09-11T20:19:55;4.00;;;2.67;;
1959;SDS011;980;43.794;11.212;2022-09-11T20:22:20;8.67;;;5.33;;
1959;SDS011;980;43.794;11.212;2022-09-11T20:24:46;7.00;;;5.00;;
1959;SDS011;980;43.794;11.212;2022-09-11T20:27:13;3.50;;;2.25;;
1959;SDS011;980;43.794;11.212;2022-09-11T20:29:39;3.00;;;3.00;;
1959;SDS011;980;43.794;11.212;2022-09-11T20:32:05;5.00;;;3.50;;
1959;SDS011;980;43.794;11.212;2022-09-11T20:34:31;11.67;;;8.33;;
1959;SDS011;980;43.794;11.212;2022-09-11T20:36:56;15.00;;;9.33;;
1959;SDS011;980;43.794;11.212;2022-09-11T20:39:24;2.00;;;1.75;;
1959;SDS011;980;43.794;11.212;2022-09-11T20:41:49;8.00;;;6.67;;
1959;SDS011;980;43.794;11.212;2022-09-11T20:44:14;3.00;;;3.00;;
1959;SDS011;980;43.794;11.212;2022-09-11T20:46:40;2.33;;;2.33;;
1959;SDS011;980;43.794;11.212;2022-09-11T20:49:07;3.50;;;3.50;;
1959;SDS011;980;43.794;11.212;2022-09-11T20:51:32;3.00;;;2.00;;
1959;SDS011;980;43.794;11.212;2022-09-11T20:53:58;6.50;;;3.00;;
1959;SDS011;980;43.794;11.212;2022-09-11T20:56:24;4.00;;;4.00;;
1959;SDS011;980;43.794;11.212;2022-09-11T20:58:49;4.67;;;3.67;;
1959;SDS011;980;43.794;11.212;2022-09-11T21:01:18;4.00;;;3.00;;
1959;SDS011;980;43.794;11.212;2022-09-11T21:03:46;4.50;;;3.00;;
1959;SDS011;980;43.794;11.212;2022-09-11T21:06:12;5.00;;;4.00;;
1959;SDS011;980;43.794;11.212;2022-09-11T21:08:37;6.00;;;5.00;;
1959;SDS011;980;43.794;11.212;2022-09-11T21:11:04;6.75;;;5.50;;
1959;SDS011;980;43.794;11.212;2022-09-11T21:13:29;5.00;;;5.00;;
1959;SDS011;980;43.794;11.212;2022-09-11T21:15:54;9.67;;;7.00;;
1959;SDS011;980;43.794;11.212;2022-09-11T21:18:19;8.67;;;8.67;;
1959;SDS011;980;43.794;11.212;2022-09-11T21:20:55;8.33;;;8.33;;
1959;SDS011;980;43.794;11.212;2022-09-11T21:23:21;5.25;;;5.00;;
1959;SDS011;980;43.794;11.212;2022-09-11T21:25:46;5.25;;;5.00;;
1959;SDS011;980;43.794;11.212;2022-09-11T21:28:12;3.00;;;1.67;;
1959;SDS011;980;43.794;11.212;2022-09-11T21:30:37;9.00;;;6.33;;
1959;SDS011;980;43.794;11.212;2022-09-11T21:33:02;8.00;;;5.00;;
1959;SDS011;980;43.794;11.212;2022-09-11T21:35:28;4.00;;;4.00;;
1959;SDS011;980;43.794;11.212;2022-09-11T21:37:53;6.67;;;5.00;;
1959;SDS011;980;43.794;11.212;2022-09-11T21:40:18;7.00;;;6.00;;
1959;SDS011;980;43.794;11.212;2022-09-11T21:42:44;11.67;;;9.67;;
1959;SDS011;980;43.794;11.212;2022-09-11T21:45:09;5.00;;;5.00;;
1959;SDS011;980;43.794;11.212;2022-09-11T21:47:35;5.33;;;4.33;;
1959;SDS011;980;43.794;11.212;2022-09-11T21:50:00;3.00;;;3.00;;
1959;SDS011;980;43.794;11.212;2022-09-11T21:52:29;4.75;;;3.75;;
1959;SDS011;980;43.794;11.212;2022-09-11T21:54:54;4.67;;;3.67;;
1959;SDS011;980;43.794;11.212;2022-09-11T21:57:20;9.00;;;8.00;;
1959;SDS011;980;43.794;11.212;2022-09-11T21:59:46;12.33;;;11.00;;
1959;SDS011;980;43.794;11.212;2022-09-11T22:02:11;8.00;;;8.00;;
1959;SDS011;980;43.794;11.212;2022-09-11T22:04:36;10.00;;;10.00;;
1959;SDS011;980;43.794;11.212;2022-09-11T22:07:01;8.00;;;5.33;;
1959;SDS011;980;43.794;11.212;2022-09-11T22:09:28;5.67;;;5.67;;
1959;SDS011;980;43.794;11.212;2022-09-11T22:11:53;7.50;;;6.00;;
1959;SDS011;980;43.794;11.212;2022-09-11T22:14:19;8.67;;;6.67;;
1959;SDS011;980;43.794;11.212;2022-09-11T22:16:45;6.50;;;5.25;;
1959;SDS011;980;43.794;11.212;2022-09-11T22:19:10;6.33;;;6.33;;
1959;SDS011;980;43.794;11.212;2022-09-11T22:21:36;7.00;;;5.67;;
1959;SDS011;980;43.794;11.212;2022-09-11T22:24:01;9.00;;;9.00;;
1959;SDS011;980;43.794;11.212;2022-09-11T22:26:27;6.00;;;6.00;;
1959;SDS011;980;43.794;11.212;2022-09-11T22:28:55;5.75;;;5.75;;
1959;SDS011;980;43.794;11.212;2022-09-11T22:31:24;5.00;;;5.00;;
1959;SDS011;980;43.794;11.212;2022-09-11T22:33:50;9.00;;;6.33;;
1959;SDS011;980;43.794;11.212;2022-09-11T22:36:16;6.00;;;4.00;;
1959;SDS011;980;43.794;11.212;2022-09-11T22:38:44;6.50;;;6.00;;
1959;SDS011;980;43.794;11.212;2022-09-11T22:41:09;5.00;;;4.00;;
1959;SDS011;980;43.794;11.212;2022-09-11T22:43:35;6.00;;;5.00;;
1959;SDS011;980;43.794;11.212;2022-09-11T22:46:00;8.00;;;5.67;;
1959;SDS011;980;43.794;11.212;2022-09-11T22:48:25;5.67;;;5.00;;
1959;SDS011;980;43.794;11.212;2022-09-11T22:50:51;4.67;;;4.67;;
1959;SDS011;980;43.794;11.212;2022-09-11T22:53:18;4.00;;;4.00;;
1959;SDS011;980;43.794;11.212;2022-09-11T22:55:43;6.00;;;5.00;;
1959;SDS011;980;43.794;11.212;2022-09-11T22:58:09;6.00;;;6.00;;
1959;SDS011;980;43.794;11.212;2022-09-11T23:00:35;4.00;;;4.00;;
1959;SDS011;980;43.794;11.212;2022-09-11T23:03:00;4.00;;;3.00;;
1959;SDS011;980;43.794;11.212;2022-09-11T23:05:25;6.00;;;5.00;;
1959;SDS011;980;43.794;11.212;2022-09-11T23:08:09;7.50;;;5.75;;
1959;SDS011;980;43.794;11.212;2022-09-11T23:10:38;3.00;;;3.00;;
1959;SDS011;980;43.794;11.212;2022-09-11T23:13:04;3.00;;;3.00;;
1959;SDS011;980;43.794;11.212;2022-09-11T23:15:29;5.00;;;4.00;;
1959;SDS011;980;43.794;11.212;2022-09-11T23:17:54;10.00;;;10.00;;
1959;SDS011;980;43.794;11.212;2022-09-11T23:20:20;5.33;;;5.33;;
1959;SDS011;980;43.794;11.212;2022-09-11T23:22:46;5.00;;;5.00;;
1959;SDS011;980;43.794;11.212;2022-09-11T23:25:11;2.67;;;2.67;;
1959;SDS011;980;43.794;11.212;2022-09-11T23:27:37;3.75;;;3.75;;
1959;SDS011;980;43.794;11.212;2022-09-11T23:30:03;5.00;;;4.00;;